createdAt,value
2019-02-20T00:00:41.878Z,16.27
2019-02-20T00:03:09.323Z,13.30
2019-02-20T00:05:36.140Z,15.80
2019-02-20T00:08:03.127Z,13.13
2019-02-20T00:10:30.016Z,11.03
2019-02-20T00:12:56.759Z,9.80
2019-02-20T00:15:23.723Z,16.13
2019-02-20T00:17:50.455Z,13.63
2019-02-20T00:20:17.378Z,18.83
2019-02-20T00:22:44.167Z,12.63
2019-02-20T00:25:11.159Z,12.57
2019-02-20T00:27:38.043Z,8.27
2019-02-20T00:30:05.125Z,13.63
2019-02-20T00:32:31.843Z,10.40
2019-02-20T00:34:58.603Z,10.53
2019-02-20T00:37:25.435Z,14.17
2019-02-20T00:39:52.190Z,16.37
2019-02-20T00:42:19.093Z,12.03
2019-02-20T00:45:11.303Z,10.17
2019-02-20T00:48:03.343Z,10.53
2019-02-20T00:50:31.459Z,9.73
2019-02-20T00:53:26.874Z,13.73
2019-02-20T00:55:53.610Z,13.53
2019-02-20T00:58:20.390Z,12.53
2019-02-20T01:00:47.359Z,8.33
2019-02-20T01:03:14.107Z,10.37
2019-02-20T01:05:40.931Z,13.53
2019-02-20T01:08:07.741Z,11.70
2019-02-20T01:10:34.495Z,12.07
2019-02-20T01:13:01.263Z,13.60
2019-02-20T01:15:27.992Z,11.70
2019-02-20T01:17:54.879Z,14.20
2019-02-20T01:20:21.623Z,9.10
2019-02-20T01:22:48.367Z,10.73
2019-02-20T01:25:15.191Z,9.77
2019-02-20T01:27:42.055Z,15.20
2019-02-20T01:30:09.048Z,12.47
2019-02-20T01:32:35.898Z,13.43
2019-02-20T01:35:03.317Z,16.77
2019-02-20T01:37:30.066Z,13.87
2019-02-20T01:39:56.840Z,9.57
2019-02-20T01:42:23.582Z,14.67
2019-02-20T01:44:50.309Z,8.00
2019-02-20T01:47:17.276Z,12.97
2019-02-20T01:49:44.038Z,10.70
2019-02-20T01:52:11.016Z,11.47
2019-02-20T01:54:37.858Z,11.47
2019-02-20T01:57:04.687Z,11.73
2019-02-20T01:59:31.524Z,11.03
2019-02-20T02:01:58.443Z,11.37
2019-02-20T02:04:25.310Z,11.13
2019-02-20T02:06:52.049Z,11.50
2019-02-20T02:09:18.779Z,10.60
2019-02-20T02:11:45.611Z,10.27
2019-02-20T02:14:12.311Z,9.43
2019-02-20T02:16:39.079Z,15.50
2019-02-20T02:19:05.842Z,10.60
2019-02-20T02:21:32.787Z,11.90
2019-02-20T02:23:59.583Z,11.83
2019-02-20T02:26:26.302Z,13.50
2019-02-20T02:28:53.063Z,9.27
2019-02-20T02:31:19.932Z,9.37
2019-02-20T02:33:46.699Z,13.47
2019-02-20T02:36:13.438Z,9.23
2019-02-20T02:38:40.167Z,8.23
2019-02-20T02:41:06.889Z,9.43
2019-02-20T02:43:33.664Z,16.40
2019-02-20T02:46:00.525Z,18.57
2019-02-20T02:48:27.267Z,17.63
2019-02-20T02:50:54.018Z,17.13
2019-02-20T02:53:30.411Z,16.63
2019-02-20T02:55:49.448Z,12.40
2019-02-20T02:58:16.356Z,8.50
2019-02-20T03:00:43.216Z,12.00
2019-02-20T03:03:10.223Z,13.90
2019-02-20T03:05:37.084Z,11.30
2019-02-20T03:08:04.064Z,13.30
2019-02-20T03:10:30.962Z,11.33
2019-02-20T03:12:57.717Z,11.67
2019-02-20T03:15:24.575Z,14.10
2019-02-20T03:17:51.455Z,10.80
2019-02-20T03:20:18.474Z,6.83
2019-02-20T03:22:45.301Z,17.83
2019-02-20T03:25:12.070Z,9.03
2019-02-20T03:27:39.019Z,8.90
2019-02-20T03:30:06.268Z,16.63
2019-02-20T03:32:33.068Z,9.90
2019-02-20T03:34:59.808Z,8.50
2019-02-20T03:37:26.679Z,12.73
2019-02-20T03:39:53.551Z,9.87
2019-02-20T03:42:20.627Z,9.07
2019-02-20T03:44:47.355Z,10.30
2019-02-20T03:47:14.104Z,12.83
2019-02-20T03:49:40.990Z,9.63
2019-02-20T03:52:07.751Z,8.67
2019-02-20T03:54:34.489Z,12.07
2019-02-20T03:57:01.196Z,12.80
2019-02-20T03:59:28.175Z,7.87
2019-02-20T04:01:55.055Z,9.50
2019-02-20T04:04:21.859Z,12.90
2019-02-20T04:06:48.635Z,11.80
2019-02-20T04:09:15.492Z,13.23
2019-02-20T04:11:42.437Z,8.27
2019-02-20T04:14:09.319Z,11.87
2019-02-20T04:16:36.252Z,6.80
2019-02-20T04:19:03.113Z,13.23
2019-02-20T04:21:30.075Z,12.00
2019-02-20T04:24:02.515Z,13.40
2019-02-20T04:26:25.579Z,11.07
2019-02-20T04:28:52.341Z,12.07
2019-02-20T04:31:19.092Z,9.37
2019-02-20T04:33:45.984Z,9.57
2019-02-20T04:36:12.723Z,15.53
2019-02-20T04:38:39.627Z,9.80
2019-02-20T04:41:06.633Z,12.17
2019-02-20T04:43:33.586Z,11.47
2019-02-20T04:46:00.304Z,7.37
2019-02-20T04:48:27.034Z,12.20
2019-02-20T04:50:54.061Z,11.27
2019-02-20T04:53:20.919Z,13.83
2019-02-20T04:55:47.672Z,10.47
2019-02-20T04:58:19.010Z,13.10
2019-02-20T05:00:45.823Z,13.40
2019-02-20T05:03:12.802Z,14.80
2019-02-20T05:05:39.677Z,14.63
2019-02-20T05:08:06.453Z,9.87
2019-02-20T05:10:33.460Z,13.80
2019-02-20T05:13:00.370Z,12.13
2019-02-20T05:15:27.145Z,13.33
2019-02-20T05:17:53.999Z,12.70
2019-02-20T05:20:20.866Z,10.13
2019-02-20T05:22:47.759Z,11.03
2019-02-20T05:25:14.469Z,17.00
2019-02-20T05:27:41.347Z,11.40
2019-02-20T05:30:08.347Z,12.10
2019-02-20T05:32:35.203Z,11.83
2019-02-20T05:35:02.093Z,12.13
2019-02-20T05:37:29.174Z,13.27
2019-02-20T05:39:56.459Z,16.60
2019-02-20T05:42:26.628Z,15.50
2019-02-20T05:44:58.229Z,13.00
2019-02-20T05:47:25.287Z,16.50
2019-02-20T05:49:52.170Z,11.27
2019-02-20T05:52:18.961Z,11.07
2019-02-20T05:54:45.718Z,11.43
2019-02-20T05:57:12.649Z,9.27
2019-02-20T05:59:43.476Z,10.83
2019-02-20T06:02:10.317Z,9.73
2019-02-20T06:04:37.146Z,10.50
2019-02-20T06:07:03.901Z,13.87
2019-02-20T06:09:30.857Z,12.10
2019-02-20T06:11:57.743Z,13.20
2019-02-20T06:14:24.736Z,17.67
2019-02-20T06:16:51.523Z,12.47
2019-02-20T06:19:18.591Z,10.73
2019-02-20T06:21:45.454Z,14.33
2019-02-20T06:24:12.291Z,12.93
2019-02-20T06:26:39.045Z,11.67
2019-02-20T06:29:05.895Z,17.47
2019-02-20T06:31:32.818Z,13.93
2019-02-20T06:33:59.587Z,10.77
2019-02-20T06:36:26.491Z,12.27
2019-02-20T06:38:53.254Z,13.30
2019-02-20T06:41:20.027Z,15.70
2019-02-20T06:43:48.103Z,13.97
2019-02-20T06:46:15.175Z,11.77
2019-02-20T06:48:42.025Z,13.03
2019-02-20T06:51:08.900Z,19.40
2019-02-20T06:53:35.607Z,14.23
2019-02-20T06:56:02.489Z,15.90
2019-02-20T06:58:29.378Z,16.80
2019-02-20T07:00:56.142Z,11.97
2019-02-20T07:03:23.043Z,30.03
2019-02-20T07:05:55.640Z,67.53
2019-02-20T07:09:09.632Z,40.60
2019-02-20T07:12:02.723Z,68.97
2019-02-20T07:14:40.987Z,85.37
2019-02-20T07:17:37.345Z,44.93
2019-02-20T07:20:45.820Z,26.00
2019-02-20T07:23:21.607Z,18.57
2019-02-20T07:26:20.755Z,14.97
2019-02-20T07:29:29.547Z,13.07
2019-02-20T07:31:56.315Z,17.70
2019-02-20T07:34:23.081Z,20.87
2019-02-20T07:36:49.796Z,12.80
2019-02-20T07:39:16.530Z,19.97
2019-02-20T07:41:43.399Z,17.83
2019-02-20T07:44:10.106Z,16.00
2019-02-20T07:46:36.842Z,11.50
2019-02-20T07:49:03.719Z,13.70
2019-02-20T07:51:30.519Z,20.37
2019-02-20T07:53:57.267Z,21.37
2019-02-20T07:56:24.188Z,16.63
2019-02-20T07:58:51.247Z,22.70
2019-02-20T08:01:17.983Z,19.83
2019-02-20T08:03:44.743Z,16.40
2019-02-20T08:06:11.501Z,22.67
2019-02-20T08:08:38.539Z,16.03
2019-02-20T08:11:05.287Z,17.13
2019-02-20T08:13:39.122Z,15.93
2019-02-20T08:16:00.932Z,23.73
2019-02-20T08:18:27.645Z,20.53
2019-02-20T08:20:54.384Z,17.03
2019-02-20T08:23:21.177Z,16.90
2019-02-20T08:25:47.915Z,18.17
2019-02-20T08:28:14.664Z,22.27
2019-02-20T08:30:41.447Z,19.23
2019-02-20T08:33:08.451Z,19.80
2019-02-20T08:35:35.272Z,21.40
2019-02-20T08:38:02.265Z,19.70
2019-02-20T08:40:28.992Z,24.13
2019-02-20T08:42:55.869Z,22.90
2019-02-20T08:45:22.628Z,20.97
2019-02-20T08:47:49.599Z,23.70
2019-02-20T08:50:16.933Z,20.40
2019-02-20T08:52:44.055Z,23.53
2019-02-20T08:55:10.948Z,22.93
2019-02-20T08:57:37.711Z,19.40
2019-02-20T09:00:06.285Z,19.67
2019-02-20T09:02:33.055Z,24.13
2019-02-20T09:04:59.931Z,20.77
2019-02-20T09:07:26.663Z,22.93
2019-02-20T09:09:53.563Z,24.63
2019-02-20T09:12:20.390Z,17.30
2019-02-20T09:14:47.100Z,18.17
2019-02-20T09:17:13.827Z,20.20
2019-02-20T09:19:40.696Z,21.10
2019-02-20T09:22:07.463Z,17.43
2019-02-20T09:24:34.319Z,22.93
2019-02-20T09:27:01.098Z,19.83
2019-02-20T09:29:27.919Z,17.60
2019-02-20T09:31:54.676Z,22.80
2019-02-20T09:34:21.370Z,20.27
2019-02-20T09:36:48.307Z,21.40
2019-02-20T09:39:32.235Z,19.87
2019-02-20T09:41:58.991Z,18.40
2019-02-20T09:44:26.219Z,22.80
2019-02-20T09:46:52.998Z,22.90
2019-02-20T09:49:19.725Z,16.97
2019-02-20T09:51:46.575Z,20.80
2019-02-20T09:54:13.487Z,25.70
2019-02-20T09:56:40.221Z,21.07
2019-02-20T09:59:08.064Z,24.43
2019-02-20T10:01:34.911Z,25.53
2019-02-20T10:04:01.659Z,23.63
2019-02-20T10:06:28.395Z,19.60
2019-02-20T10:08:55.195Z,21.47
2019-02-20T10:11:22.047Z,19.97
2019-02-20T10:13:48.747Z,25.40
2019-02-20T10:16:15.648Z,22.00
2019-02-20T10:18:42.495Z,24.50
2019-02-20T10:21:09.253Z,18.17
2019-02-20T10:23:36.138Z,22.10
2019-02-20T10:26:03.049Z,20.93
2019-02-20T10:28:29.899Z,23.40
2019-02-20T10:30:56.763Z,21.83
2019-02-20T10:33:23.720Z,22.57
2019-02-20T10:35:50.550Z,19.53
2019-02-20T10:38:17.337Z,28.23
2019-02-20T10:40:44.192Z,30.97
2019-02-20T10:43:11.080Z,24.33
2019-02-20T10:45:37.843Z,24.37
2019-02-20T10:48:04.803Z,28.50
2019-02-20T10:50:31.681Z,21.47
2019-02-20T10:52:58.415Z,18.23
2019-02-20T10:55:25.175Z,19.63
2019-02-20T10:57:52.123Z,23.83
2019-02-20T11:00:23.874Z,23.00
2019-02-20T11:02:49.891Z,22.50
2019-02-20T11:05:17.159Z,22.33
2019-02-20T11:07:43.891Z,20.87
2019-02-20T11:10:10.843Z,22.43
2019-02-20T11:12:37.815Z,22.90
2019-02-20T11:15:04.815Z,18.37
2019-02-20T11:17:31.642Z,21.97
2019-02-20T11:19:58.451Z,23.60
2019-02-20T11:22:26.224Z,22.50
2019-02-20T11:24:53.865Z,22.53
2019-02-20T11:27:21.014Z,15.27
2019-02-20T11:29:54.104Z,21.33
2019-02-20T11:32:21.123Z,18.00
2019-02-20T11:34:48.079Z,17.70
2019-02-20T11:37:14.843Z,17.27
2019-02-20T11:39:41.571Z,19.00
2019-02-20T11:42:08.527Z,17.83
2019-02-20T11:44:35.338Z,20.43
2019-02-20T11:47:02.258Z,19.83
2019-02-20T11:49:29.141Z,19.80
2019-02-20T11:51:55.903Z,23.00
2019-02-20T11:54:22.926Z,19.70
2019-02-20T11:56:49.675Z,24.07
2019-02-20T11:59:16.555Z,17.13
2019-02-20T12:01:43.284Z,23.13
2019-02-20T12:04:10.003Z,23.27
2019-02-20T12:06:36.852Z,20.03
2019-02-20T12:09:04.778Z,27.70
2019-02-20T12:11:31.507Z,19.43
2019-02-20T12:13:58.263Z,21.93
2019-02-20T12:16:25.185Z,21.00
2019-02-20T12:18:51.951Z,20.30
2019-02-20T12:21:18.879Z,22.13
2019-02-20T12:23:45.717Z,17.97
2019-02-20T12:26:12.451Z,19.23
2019-02-20T12:28:39.416Z,25.93
2019-02-20T12:31:06.351Z,20.53
2019-02-20T12:33:33.331Z,21.50
2019-02-20T12:36:00.231Z,23.33
2019-02-20T12:38:27.195Z,23.93
2019-02-20T12:40:54.027Z,20.30
2019-02-20T12:43:20.739Z,21.30
2019-02-20T12:45:49.021Z,26.30
2019-02-20T12:48:15.999Z,20.23
2019-02-20T12:50:42.877Z,24.07
2019-02-20T12:53:09.621Z,24.30
2019-02-20T12:55:36.502Z,21.07
2019-02-20T12:58:03.629Z,22.87
2019-02-20T13:00:30.582Z,22.17
2019-02-20T13:02:57.343Z,23.50
2019-02-20T13:05:24.643Z,25.03
2019-02-20T13:07:51.500Z,21.47
2019-02-20T13:10:18.327Z,26.13
2019-02-20T13:12:46.777Z,21.73
2019-02-20T13:15:13.879Z,26.30
2019-02-20T13:17:40.959Z,22.40
2019-02-20T13:20:07.990Z,27.83
2019-02-20T13:22:34.876Z,23.67
2019-02-20T13:25:04.003Z,28.50
2019-02-20T13:27:30.523Z,32.27
2019-02-20T13:29:57.263Z,21.97
2019-02-20T13:32:24.008Z,24.40
2019-02-20T13:34:51.014Z,27.37
2019-02-20T13:37:17.772Z,19.00
2019-02-20T13:39:44.662Z,25.13
2019-02-20T13:42:11.631Z,23.70
2019-02-20T13:44:39.000Z,23.17
2019-02-20T13:47:05.863Z,25.00
2019-02-20T13:49:32.718Z,25.13
2019-02-20T13:51:59.559Z,25.37
2019-02-20T13:54:26.444Z,21.63
2019-02-20T13:57:01.453Z,25.23
2019-02-20T13:59:22.151Z,21.40
2019-02-20T14:01:49.331Z,22.00
2019-02-20T14:04:16.075Z,23.33
2019-02-20T14:06:42.783Z,23.20
2019-02-20T14:09:09.860Z,24.73
2019-02-20T14:11:36.928Z,22.67
2019-02-20T14:14:03.875Z,22.20
2019-02-20T14:16:30.735Z,21.50
2019-02-20T14:18:57.515Z,25.23
2019-02-20T14:21:24.223Z,25.13
2019-02-20T14:23:51.322Z,19.30
2019-02-20T14:26:18.176Z,23.17
2019-02-20T14:28:44.943Z,23.43
2019-02-20T14:31:11.955Z,19.97
2019-02-20T14:33:38.787Z,24.27
2019-02-20T14:36:05.779Z,22.47
2019-02-20T14:38:32.807Z,27.17
2019-02-20T14:40:59.604Z,21.13
2019-02-20T14:43:26.444Z,21.07
2019-02-20T14:45:53.327Z,16.97
2019-02-20T14:48:20.151Z,20.43
2019-02-20T14:50:46.967Z,21.00
2019-02-20T14:53:13.863Z,24.50
2019-02-20T14:55:40.623Z,19.40
2019-02-20T14:58:07.603Z,20.07
2019-02-20T15:00:34.596Z,19.37
2019-02-20T15:03:01.672Z,19.77
2019-02-20T15:05:28.419Z,22.30
2019-02-20T15:07:56.064Z,22.30
2019-02-20T15:10:23.109Z,24.50
2019-02-20T15:12:49.971Z,20.30
2019-02-20T15:15:16.924Z,20.03
2019-02-20T15:17:43.949Z,17.63
2019-02-20T15:20:11.351Z,18.47
2019-02-20T15:22:38.719Z,21.23
2019-02-20T15:25:05.849Z,17.00
2019-02-20T15:27:32.757Z,21.63
2019-02-20T15:29:59.792Z,16.37
2019-02-20T15:32:26.786Z,17.33
2019-02-20T15:34:53.892Z,17.77
2019-02-20T15:38:24.498Z,17.43
2019-02-20T15:42:08.342Z,17.67
2019-02-20T15:44:24.845Z,17.23
2019-02-20T15:47:02.192Z,16.47
2019-02-20T15:49:37.378Z,17.03
2019-02-20T15:52:08.784Z,19.87
2019-02-20T15:54:46.123Z,15.90
2019-02-20T15:57:37.804Z,15.77
2019-02-20T16:00:07.072Z,15.30
2019-02-20T16:03:00.483Z,16.43
2019-02-20T16:06:01.368Z,15.03
2019-02-20T16:08:37.488Z,18.10
2019-02-20T16:11:16.863Z,17.80
2019-02-20T16:14:07.323Z,17.20
2019-02-20T16:16:45.080Z,17.53
2019-02-20T16:19:12.180Z,19.20
2019-02-20T16:21:39.279Z,19.00
2019-02-20T16:24:06.020Z,17.47
2019-02-20T16:26:43.851Z,15.77
2019-02-20T16:29:10.895Z,16.97
2019-02-20T16:31:37.795Z,18.17
2019-02-20T16:34:06.218Z,23.07
2019-02-20T16:36:33.007Z,20.23
2019-02-20T16:39:00.032Z,15.37
2019-02-20T16:41:26.924Z,17.43
2019-02-20T16:43:54.139Z,19.03
2019-02-20T16:46:21.353Z,16.07
2019-02-20T16:48:48.486Z,17.73
2019-02-20T16:51:15.382Z,14.57
2019-02-20T16:53:42.539Z,14.33
2019-02-20T16:56:09.715Z,14.90
2019-02-20T16:58:36.539Z,14.57
2019-02-20T17:01:05.115Z,16.27
2019-02-20T17:03:32.032Z,17.37
2019-02-20T17:05:59.055Z,16.47
2019-02-20T17:08:26.228Z,19.17
2019-02-20T17:10:53.735Z,12.83
2019-02-20T17:13:20.749Z,19.07
2019-02-20T17:15:47.803Z,14.00
2019-02-20T17:18:14.562Z,14.87
2019-02-20T17:20:41.514Z,17.90
2019-02-20T17:23:09.056Z,16.03
2019-02-20T17:25:36.159Z,16.10
2019-02-20T17:28:05.778Z,21.87
2019-02-20T17:30:31.986Z,47.83
2019-02-20T17:32:58.939Z,52.83
2019-02-20T17:35:25.968Z,54.30
2019-02-20T17:37:52.967Z,68.77
2019-02-20T17:40:19.838Z,65.07
2019-02-20T17:42:47.000Z,77.40
2019-02-20T17:45:13.868Z,79.43
2019-02-20T17:47:41.384Z,96.83
2019-02-20T17:50:10.783Z,84.67
2019-02-20T17:52:37.530Z,60.33
2019-02-20T17:55:04.978Z,41.23
2019-02-20T17:57:31.863Z,35.87
2019-02-20T17:59:58.711Z,31.73
2019-02-20T18:02:25.641Z,31.40
2019-02-20T18:04:52.639Z,27.73
2019-02-20T18:07:19.591Z,25.20
2019-02-20T18:09:46.423Z,27.37
2019-02-20T18:12:13.393Z,20.87
2019-02-20T18:14:40.387Z,22.10
2019-02-20T18:17:07.414Z,23.90
2019-02-20T18:19:34.175Z,21.67
2019-02-20T18:22:01.199Z,21.10
2019-02-20T18:24:27.915Z,22.20
2019-02-20T18:26:55.196Z,24.13
2019-02-20T18:29:22.468Z,33.87
2019-02-20T18:31:49.647Z,33.00
2019-02-20T18:34:16.897Z,30.13
2019-02-20T18:36:43.815Z,28.93
2019-02-20T18:39:10.757Z,30.33
2019-02-20T18:41:37.637Z,27.73
2019-02-20T18:44:04.730Z,21.13
2019-02-20T18:46:31.482Z,16.87
2019-02-20T18:48:58.344Z,18.47
2019-02-20T18:51:25.255Z,20.73
2019-02-20T18:53:52.350Z,18.33
2019-02-20T18:56:21.947Z,22.17
2019-02-20T18:58:49.341Z,17.87
2019-02-20T19:01:16.304Z,23.20
2019-02-20T19:03:43.465Z,21.60
2019-02-20T19:06:10.461Z,19.43
2019-02-20T19:08:43.952Z,28.20
2019-02-20T19:12:05.608Z,23.47
2019-02-20T19:15:12.072Z,20.03
2019-02-20T19:18:40.979Z,21.27
2019-02-20T19:21:23.175Z,16.93
2019-02-20T19:24:38.465Z,21.97
2019-02-20T19:27:28.306Z,19.90
2019-02-20T19:30:22.475Z,19.20
2019-02-20T19:33:32.163Z,18.20
2019-02-20T19:36:37.037Z,14.60
2019-02-20T19:39:35.316Z,12.73
2019-02-20T19:42:43.728Z,13.80
2019-02-20T19:45:31.792Z,17.03
2019-02-20T19:48:37.401Z,12.80
2019-02-20T19:51:17.922Z,13.20
2019-02-20T19:54:15.675Z,15.77
2019-02-20T19:57:16.021Z,14.47
2019-02-20T19:59:55.868Z,17.57
2019-02-20T20:03:06.870Z,17.63
2019-02-20T20:06:17.638Z,21.97
2019-02-20T20:09:00.567Z,29.90
2019-02-20T20:12:06.690Z,23.20
2019-02-20T20:15:14.382Z,20.73
2019-02-20T20:18:20.489Z,15.57
2019-02-20T20:21:32.113Z,20.27
2019-02-20T20:24:59.366Z,22.10
2019-02-20T20:28:23.176Z,17.93
2019-02-20T20:31:53.607Z,21.03
2019-02-20T20:34:58.342Z,25.43
2019-02-20T20:37:38.819Z,20.43
2019-02-20T20:40:45.007Z,22.20
2019-02-20T20:43:50.580Z,29.07
2019-02-20T20:46:44.662Z,20.80
2019-02-20T20:49:37.837Z,23.30
2019-02-20T20:52:43.813Z,21.23
2019-02-20T20:55:57.651Z,18.47
2019-02-20T20:58:49.204Z,18.37
2019-02-20T21:01:43.771Z,22.20
2019-02-20T21:04:55.063Z,20.57
2019-02-20T21:07:50.967Z,20.37
2019-02-20T21:10:46.580Z,23.60
2019-02-20T21:13:34.866Z,17.07
2019-02-20T21:16:16.041Z,21.37
2019-02-20T21:19:08.285Z,20.60
2019-02-20T21:21:54.065Z,18.00
2019-02-20T21:24:45.763Z,17.90
2019-02-20T21:27:56.909Z,21.23
2019-02-20T21:31:06.144Z,16.67
2019-02-20T21:34:01.820Z,20.23
2019-02-20T21:36:57.763Z,17.53
2019-02-20T21:39:59.589Z,15.97
2019-02-20T21:42:53.804Z,20.70
2019-02-20T21:45:56.834Z,19.93
2019-02-20T21:48:42.183Z,21.97
2019-02-20T21:51:40.679Z,17.33
2019-02-20T21:54:37.308Z,17.77
2019-02-20T21:57:26.028Z,18.13
2019-02-20T22:00:18.215Z,25.27
2019-02-20T22:03:26.811Z,17.77
2019-02-20T22:06:14.216Z,20.23
2019-02-20T22:09:08.513Z,22.23
2019-02-20T22:12:02.593Z,20.83
2019-02-20T22:15:07.547Z,22.50
2019-02-20T22:18:12.756Z,19.13
2019-02-20T22:21:20.754Z,18.90
2019-02-20T22:24:03.532Z,22.57
2019-02-20T22:27:00.076Z,21.43
2019-02-20T22:29:59.465Z,20.60
2019-02-20T22:33:07.326Z,20.83
2019-02-20T22:35:55.188Z,20.10
2019-02-20T22:38:58.332Z,14.80
2019-02-20T22:41:50.399Z,20.17
2019-02-20T22:45:04.691Z,14.50
2019-02-20T22:47:51.416Z,17.70
2019-02-20T22:50:59.536Z,20.77
2019-02-20T22:54:14.927Z,21.63
2019-02-20T22:57:30.165Z,18.20
2019-02-20T23:00:40.664Z,17.77
2019-02-20T23:03:41.051Z,17.60
2019-02-20T23:06:40.245Z,19.67
2019-02-20T23:09:47.856Z,18.50
2019-02-20T23:15:44.010Z,16.10
2019-02-20T23:18:11.560Z,19.50
2019-02-20T23:20:39.095Z,23.90
2019-02-20T23:23:06.578Z,17.20
2019-02-20T23:25:34.237Z,18.80
2019-02-20T23:28:01.892Z,19.33
2019-02-20T23:30:29.546Z,19.10
2019-02-20T23:32:56.984Z,22.73
2019-02-20T23:35:24.497Z,24.43
2019-02-20T23:37:51.981Z,19.20
2019-02-20T23:40:22.478Z,20.73
2019-02-20T23:42:49.947Z,20.17
2019-02-20T23:45:17.538Z,16.10
2019-02-20T23:47:45.063Z,18.37
2019-02-20T23:50:12.447Z,21.57
2019-02-20T23:52:39.836Z,25.20
2019-02-20T23:55:07.242Z,18.77
2019-02-20T23:57:34.876Z,18.03
